KMTJ/MTJ METAR and TAF weather

Enter ICAO airport designator
Station Type Date Time Source
KMTJ METAR 2018/12/13 07:53 UTC NOAA

KMTJ 130753Z AUTO 01004KT 10SM BKN070 M04/M10 A3024 RMK AO2 SLP250 T10391100


Station Type Date Time Source
KMTJ Decoded METAR 2018/12/13 07:53 UTC NOAA

MONTROSE REGIONAL AIRPORT, CO, United States (KMTJ) 38-30N 107-54W 1750M
Dec 13, 2018 - 02:53 AM EST / 2018.12.13 0753 UTC
Wind: from the N (010 degrees) at 5 MPH (4 KT):0
Visibility: 10 mile(s):0
Sky conditions: mostly cloudy
Temperature: 25.0 F (-3.9 C)
Windchill: 19 F (-7 C):1
Dew Point: 14.0 F (-10.0 C)
Relative Humidity: 62%
Pressure (altimeter): 30.24 in. Hg (1024 hPa)
ob: KMTJ 130753Z AUTO 01004KT 10SM BKN070 M04/M10 A3024 RMK AO2 SLP250 T10391100
cycle: 8

Station Type Date Time Source
KMTJ TAF 2018/12/13 06:24 UTC NOAA

TAF KMTJ 130520Z 1306/1406 33006KT P6SM OVC040
FM130700 29005KT P6SM FEW040 SCT090
FM131000 VRB03KT P6SM FEW060 FEW150
FM131200 VRB03KT P6SM FEW080 FEW250


Example: see airport list